Time;durP1;ratioP1;P1;durP2;ratioP2;P2;SDS_P1;SDS_P2;PMS_P1;PMS_P2;Temp;Humidity;BMP_temperature;BMP_pressure;BME280_temperature;BME280_humidity;BME280_pressure;Samples;Min_cycle;Max_cycle;Signal;HPM_P1;HPM_P2
2023/01/22 00:01:28;;;;;;;10.50;5.37;;;-2.30;99.90;;;;;;5059131;28;20193;-74
2023/01/22 00:03:53;;;;;;;14.43;7.10;;;-2.30;99.90;;;;;;5071546;28;20177;-74
2023/01/22 00:06:19;;;;;;;11.30;6.43;;;-2.30;99.90;;;;;;5080989;28;20180;-71
2023/01/22 00:08:47;;;;;;;14.70;6.60;;;-2.30;99.90;;;;;;5072765;28;20181;-71
2023/01/22 00:11:13;;;;;;;20.53;8.07;;;-2.30;99.90;;;;;;5072757;28;20945;-72
2023/01/22 00:13:39;;;;;;;16.10;9.43;;;-2.30;99.90;;;;;;5072212;28;20407;-72
2023/01/22 00:16:06;;;;;;;16.40;7.47;;;-2.30;99.90;;;;;;5073470;28;20437;-72
2023/01/22 00:18:32;;;;;;;12.03;6.47;;;-2.30;99.90;;;;;;5070676;28;20414;-72
2023/01/22 00:20:58;;;;;;;15.13;8.03;;;-2.30;99.90;;;;;;5072035;28;20470;-72
2023/01/22 00:23:24;;;;;;;14.67;6.80;;;-2.30;99.90;;;;;;5070817;28;20819;-72
2023/01/22 00:25:59;;;;;;;12.87;6.53;;;-2.30;99.90;;;;;;5072280;28;20469;-71
2023/01/22 00:28:25;;;;;;;14.73;6.90;;;-2.30;99.90;;;;;;5065469;28;20185;-72
2023/01/22 00:31:00;;;;;;;18.00;7.90;;;-2.30;99.90;;;;;;5089152;28;20471;-74
2023/01/22 00:33:26;;;;;;;17.13;7.03;;;-2.30;99.90;;;;;;5080702;28;20218;-74
2023/01/22 00:35:52;;;;;;;15.37;6.97;;;-2.30;99.90;;;;;;5072043;28;20415;-74
2023/01/22 00:38:17;;;;;;;19.23;6.87;;;-2.30;99.90;;;;;;5072174;28;20438;-74
2023/01/22 00:40:43;;;;;;;14.93;7.47;;;-2.30;99.90;;;;;;5072267;28;20204;-74
2023/01/22 00:43:09;;;;;;;19.23;8.33;;;-2.30;99.90;;;;;;5060718;28;20170;-74
2023/01/22 00:45:34;;;;;;;15.60;7.30;;;-2.30;99.90;;;;;;5064874;28;20218;-74
2023/01/22 00:48:01;;;;;;;17.13;7.57;;;-2.30;99.90;;;;;;5077763;28;20451;-74
2023/01/22 00:50:26;;;;;;;17.20;8.23;;;-2.30;99.90;;;;;;5071874;28;20181;-74
2023/01/22 00:52:52;;;;;;;14.63;8.03;;;-2.30;99.90;;;;;;5081967;28;20425;-74
2023/01/22 00:55:18;;;;;;;17.40;7.70;;;-2.30;99.90;;;;;;5074404;28;20683;-74
2023/01/22 00:57:43;;;;;;;12.17;6.17;;;-2.30;99.90;;;;;;5075833;28;20196;-74
2023/01/22 01:00:10;;;;;;;12.00;7.40;;;-2.30;99.90;;;;;;5084077;28;20204;-71
2023/01/22 01:03:25;;;;;;;16.30;5.10;;;-2.20;99.90;;;;;;5075112;28;20185;-71
2023/01/22 01:05:24;;;;;;;13.47;7.23;;;-2.20;99.90;;;;;;5066734;28;20407;-71
2023/01/22 01:07:49;;;;;;;11.17;6.03;;;-2.20;99.90;;;;;;5075729;28;20408;-72
2023/01/22 01:10:15;;;;;;;13.60;6.10;;;-2.20;99.90;;;;;;5083500;28;20601;-72
2023/01/22 01:12:41;;;;;;;13.03;6.10;;;-2.10;99.90;;;;;;5072846;28;20181;-72
2023/01/22 01:15:07;;;;;;;14.77;6.60;;;-2.20;99.90;;;;;;5074222;28;20462;-71
2023/01/22 01:17:34;;;;;;;13.03;5.50;;;-2.10;99.90;;;;;;5071770;28;20183;-71
2023/01/22 01:20:00;;;;;;;10.23;5.60;;;-2.10;99.90;;;;;;5070776;28;20463;-71
2023/01/22 01:22:25;;;;;;;13.53;6.80;;;-2.20;99.90;;;;;;5068115;28;20485;-71
2023/01/22 01:24:51;;;;;;;14.53;7.07;;;-2.10;99.90;;;;;;5061610;28;20208;-71
2023/01/22 01:27:17;;;;;;;8.30;5.10;;;-2.10;99.90;;;;;;5074281;28;20218;-71
2023/01/22 01:29:42;;;;;;;9.80;5.20;;;-2.10;99.90;;;;;;5073871;28;20255;-71
2023/01/22 01:32:08;;;;;;;15.87;6.30;;;-2.10;99.90;;;;;;5091781;28;20187;-71
2023/01/22 01:34:33;;;;;;;14.67;7.40;;;-2.10;99.90;;;;;;5073981;28;20239;-71
2023/01/22 01:36:59;;;;;;;10.60;5.77;;;-2.10;99.90;;;;;;5085772;28;20223;-71
2023/01/22 01:39:24;;;;;;;14.37;7.20;;;-2.10;99.90;;;;;;5073760;28;20195;-71
2023/01/22 01:41:50;;;;;;;11.37;5.30;;;-2.10;99.90;;;;;;5088907;28;20593;-71
2023/01/22 01:44:18;;;;;;;20.00;7.13;;;-2.10;99.90;;;;;;5084767;28;20181;-71
2023/01/22 01:46:52;;;;;;;10.60;5.77;;;-2.10;99.90;;;;;;5068064;28;20188;-71
2023/01/22 01:49:28;;;;;;;14.13;5.20;;;-2.00;99.90;;;;;;5066294;28;20412;-71
2023/01/22 01:51:58;;;;;;;8.97;5.63;;;-2.10;99.90;;;;;;5071946;28;20415;-72
2023/01/22 01:54:25;;;;;;;18.27;6.70;;;-2.10;99.90;;;;;;5073794;28;20407;-71
2023/01/22 01:56:56;;;;;;;10.57;5.63;;;-2.00;99.90;;;;;;5073839;28;20432;-72
2023/01/22 01:59:22;;;;;;;13.57;5.80;;;-2.00;99.90;;;;;;5069635;28;20557;-71
2023/01/22 02:01:53;;;;;;;10.23;5.40;;;-2.00;99.90;;;;;;5079832;28;20419;-74
2023/01/22 02:04:20;;;;;;;12.27;5.40;;;-2.00;99.90;;;;;;5072395;28;20418;-71
2023/01/22 02:06:45;;;;;;;14.30;6.33;;;-2.00;99.90;;;;;;5073362;28;20414;-71
2023/01/22 02:09:12;;;;;;;13.77;5.80;;;-2.00;99.90;;;;;;5073751;28;20411;-71
2023/01/22 02:11:39;;;;;;;9.60;5.50;;;-1.90;99.90;;;;;;5073360;28;20254;-72
2023/01/22 02:14:11;;;;;;;10.10;5.67;;;-1.90;99.90;;;;;;5073317;28;20487;-71
2023/01/22 02:16:37;;;;;;;11.23;6.60;;;-1.90;99.90;;;;;;5073293;28;20430;-71
2023/01/22 02:19:02;;;;;;;11.87;6.20;;;-1.90;99.90;;;;;;5073322;28;20451;-71
2023/01/22 02:21:31;;;;;;;8.10;5.47;;;-1.90;99.90;;;;;;5072648;28;20181;-71
2023/01/22 02:23:56;;;;;;;10.00;5.80;;;-1.90;99.90;;;;;;5073212;28;20193;-71
2023/01/22 02:26:22;;;;;;;12.67;6.17;;;-1.90;99.90;;;;;;5073302;28;20407;-71
2023/01/22 02:28:48;;;;;;;17.50;6.83;;;-1.90;99.90;;;;;;5073462;28;20173;-71
2023/01/22 02:31:14;;;;;;;10.70;6.17;;;-1.90;99.90;;;;;;5073077;28;20435;-72
2023/01/22 02:33:39;;;;;;;13.07;6.03;;;-1.90;99.90;;;;;;5072781;28;20535;-71
2023/01/22 02:36:05;;;;;;;12.60;5.97;;;-1.90;99.90;;;;;;5072529;28;20192;-72
2023/01/22 02:38:31;;;;;;;15.13;6.93;;;-1.90;99.90;;;;;;5072936;28;20189;-71
2023/01/22 02:40:57;;;;;;;13.77;6.90;;;-1.90;99.90;;;;;;5072488;28;20459;-71
2023/01/22 02:43:23;;;;;;;10.07;5.40;;;-1.90;99.90;;;;;;5072649;28;20269;-72
2023/01/22 02:45:49;;;;;;;9.50;5.37;;;-1.90;99.90;;;;;;5072688;28;20586;-71
2023/01/22 02:48:14;;;;;;;12.90;5.93;;;-1.90;99.90;;;;;;5072796;28;20513;-71
2023/01/22 02:50:40;;;;;;;12.43;5.93;;;-1.90;99.90;;;;;;5072120;28;20177;-71
2023/01/22 02:53:06;;;;;;;14.43;7.17;;;-1.90;99.90;;;;;;5072243;28;20504;-71
2023/01/22 02:55:32;;;;;;;13.77;7.10;;;-1.90;99.90;;;;;;5071895;28;20183;-71
2023/01/22 02:57:57;;;;;;;14.30;6.73;;;-1.80;99.90;;;;;;5072763;28;20575;-72
2023/01/22 03:00:23;;;;;;;11.23;5.37;;;-1.80;99.90;;;;;;5066757;28;20597;-71
2023/01/22 03:02:48;;;;;;;14.80;6.03;;;-1.80;99.90;;;;;;5060281;28;20174;-71
2023/01/22 03:05:14;;;;;;;12.10;6.83;;;-1.80;99.90;;;;;;5078050;28;20578;-71
2023/01/22 03:07:43;;;;;;;11.03;5.80;;;-1.80;99.90;;;;;;5084473;28;20179;-71
2023/01/22 03:10:18;;;;;;;11.40;6.53;;;-1.80;99.90;;;;;;5085790;28;20176;-71
2023/01/22 03:21:17;;;;;;;10.47;6.37;;;-1.80;99.90;;;;;;5071611;28;20814;-71
2023/01/22 03:23:53;;;;;;;13.60;7.37;;;-1.80;99.90;;;;;;5078103;28;20414;-72
2023/01/22 03:26:21;;;;;;;12.67;6.80;;;-1.80;99.90;;;;;;5081015;28;20953;-72
2023/01/22 03:28:48;;;;;;;11.10;5.97;;;-1.80;99.90;;;;;;5075044;28;20419;-72
2023/01/22 03:31:15;;;;;;;12.83;6.63;;;-1.80;99.90;;;;;;5071647;28;20461;-72
2023/01/22 03:33:41;;;;;;;14.63;6.70;;;-1.80;99.90;;;;;;5071817;28;20479;-72
2023/01/22 03:36:10;;;;;;;18.13;6.90;;;-1.80;99.90;;;;;;5071590;28;20411;-72
2023/01/22 03:38:36;;;;;;;13.03;6.10;;;-1.80;99.90;;;;;;5087693;28;20492;-72
2023/01/22 03:41:04;;;;;;;11.67;6.57;;;-1.80;99.90;;;;;;5071758;28;20454;-72
2023/01/22 03:43:31;;;;;;;20.77;7.67;;;-1.70;99.90;;;;;;5071582;28;20494;-72
2023/01/22 03:46:10;;;;;;;14.73;6.40;;;-1.80;99.90;;;;;;5066029;28;20454;-72
2023/01/22 03:48:37;;;;;;;13.30;6.77;;;-1.80;99.90;;;;;;5071745;28;20415;-72
2023/01/22 03:51:07;;;;;;;13.63;6.47;;;-1.80;99.90;;;;;;5071783;28;20747;-71
2023/01/22 03:53:33;;;;;;;14.30;7.30;;;-1.80;99.90;;;;;;5071346;28;20477;-72
2023/01/22 03:56:00;;;;;;;13.40;6.73;;;-1.70;99.90;;;;;;5071868;28;20546;-72
2023/01/22 03:58:28;;;;;;;16.63;7.17;;;-1.70;99.90;;;;;;5071794;28;20415;-72
2023/01/22 04:00:56;;;;;;;14.10;8.17;;;-1.70;99.90;;;;;;5071750;28;20459;-72
2023/01/22 04:03:25;;;;;;;14.00;7.33;;;-1.70;99.90;;;;;;5068612;28;20415;-71
2023/01/22 04:05:52;;;;;;;16.30;7.00;;;-1.70;99.90;;;;;;5071442;28;20415;-72
2023/01/22 04:08:18;;;;;;;14.97;6.93;;;-1.70;99.90;;;;;;5071737;28;20430;-72
2023/01/22 04:10:44;;;;;;;13.73;7.13;;;-1.70;99.90;;;;;;5071915;28;20447;-72
2023/01/22 04:13:10;;;;;;;14.80;7.63;;;-1.70;99.90;;;;;;5071360;28;20461;-71
2023/01/22 04:15:35;;;;;;;13.50;6.87;;;-1.70;99.90;;;;;;5067065;28;20182;-72
2023/01/22 04:18:01;;;;;;;17.83;8.93;;;-1.70;99.90;;;;;;5064889;28;20231;-71
2023/01/22 04:20:26;;;;;;;13.93;6.30;;;-1.60;99.90;;;;;;5068351;28;20491;-71
2023/01/22 04:22:52;;;;;;;14.87;8.63;;;-1.70;99.90;;;;;;5070867;28;20185;-72
2023/01/22 04:25:17;;;;;;;11.83;6.50;;;-1.70;99.90;;;;;;5071696;28;20189;-71
2023/01/22 04:27:44;;;;;;;15.60;8.20;;;-1.70;99.90;;;;;;5072366;28;20177;-72
2023/01/22 04:30:10;;;;;;;11.57;7.13;;;-1.70;99.90;;;;;;5075431;28;20215;-72
2023/01/22 04:32:36;;;;;;;13.53;6.50;;;-1.70;99.90;;;;;;5075210;28;20755;-72
2023/01/22 04:35:03;;;;;;;17.73;7.83;;;-1.70;99.90;;;;;;5075402;28;20419;-71
2023/01/22 04:37:30;;;;;;;15.10;7.50;;;-1.70;99.90;;;;;;5074671;28;20208;-71
2023/01/22 04:39:56;;;;;;;15.60;7.70;;;-1.70;99.90;;;;;;5090937;28;20451;-71
2023/01/22 04:42:21;;;;;;;12.97;6.90;;;-1.70;99.90;;;;;;5074979;28;20913;-71
2023/01/22 04:44:47;;;;;;;13.37;8.17;;;-1.70;99.90;;;;;;5075125;28;20693;-71
2023/01/22 04:47:13;;;;;;;20.37;8.20;;;-1.80;99.90;;;;;;5075158;28;20173;-71
2023/01/22 04:49:38;;;;;;;14.90;7.77;;;-1.80;99.90;;;;;;5074951;28;20208;-74
2023/01/22 04:52:04;;;;;;;16.33;8.93;;;-1.80;99.90;;;;;;5074632;28;20534;-74
2023/01/22 04:54:29;;;;;;;17.03;7.70;;;-1.80;99.90;;;;;;5067728;28;20269;-72
2023/01/22 04:56:55;;;;;;;15.70;6.50;;;-1.70;99.90;;;;;;5075196;28;20232;-72
2023/01/22 04:59:21;;;;;;;18.20;9.00;;;-1.80;99.90;;;;;;5074841;28;20612;-72
2023/01/22 05:01:49;;;;;;;18.73;8.03;;;-1.80;99.90;;;;;;5074422;28;20181;-71
2023/01/22 05:04:15;;;;;;;26.77;8.67;;;-1.80;99.90;;;;;;5074685;28;20173;-71
2023/01/22 05:06:41;;;;;;;15.47;8.30;;;-1.80;99.90;;;;;;5074390;28;20403;-71
2023/01/22 05:09:06;;;;;;;20.40;8.50;;;-1.80;99.90;;;;;;5074603;28;20946;-71
2023/01/22 05:11:32;;;;;;;24.57;9.67;;;-1.80;99.90;;;;;;5072166;28;20177;-71
2023/01/22 05:13:57;;;;;;;14.80;7.30;;;-1.70;99.90;;;;;;5074693;28;20177;-71
2023/01/22 05:16:23;;;;;;;19.80;8.50;;;-1.70;99.90;;;;;;5074676;28;20883;-72
2023/01/22 05:18:49;;;;;;;24.80;8.80;;;-1.70;99.90;;;;;;5074532;28;20180;-71
2023/01/22 05:21:14;;;;;;;18.50;9.03;;;-1.70;99.90;;;;;;5074117;28;20177;-71
2023/01/22 05:23:40;;;;;;;16.77;8.90;;;-1.70;99.90;;;;;;5074268;28;20169;-71
2023/01/22 05:26:06;;;;;;;23.47;9.50;;;-1.70;99.90;;;;;;5074674;28;20254;-71
2023/01/22 05:28:31;;;;;;;17.37;8.47;;;-1.70;99.90;;;;;;5074362;28;20205;-71
2023/01/22 05:30:57;;;;;;;18.47;8.93;;;-1.70;99.90;;;;;;5074390;28;20188;-71
2023/01/22 05:33:22;;;;;;;20.00;9.53;;;-1.70;99.90;;;;;;5074230;28;20173;-71
2023/01/22 05:35:58;;;;;;;22.43;10.33;;;-1.70;99.90;;;;;;5073842;28;20688;-72
2023/01/22 05:38:24;;;;;;;21.30;8.40;;;-1.70;99.90;;;;;;5074563;28;20540;-72
2023/01/22 05:40:50;;;;;;;18.40;9.40;;;-1.80;99.90;;;;;;5073127;28;20463;-72
2023/01/22 05:43:16;;;;;;;23.03;11.47;;;-1.70;99.90;;;;;;5073971;28;20439;-72
2023/01/22 05:45:41;;;;;;;16.40;8.60;;;-1.80;99.90;;;;;;5072999;28;20446;-72
2023/01/22 05:48:07;;;;;;;17.97;8.47;;;-1.80;99.90;;;;;;5074301;28;20248;-72
2023/01/22 05:50:32;;;;;;;22.73;9.40;;;-1.80;99.90;;;;;;5073984;28;20182;-72
2023/01/22 05:52:58;;;;;;;18.47;8.77;;;-1.80;99.90;;;;;;5073793;28;20185;-72
2023/01/22 05:55:24;;;;;;;16.10;9.10;;;-1.80;99.90;;;;;;5073926;28;20260;-72
2023/01/22 05:57:49;;;;;;;20.40;9.63;;;-1.70;99.90;;;;;;5074112;28;20256;-72
2023/01/22 06:00:16;;;;;;;19.37;9.63;;;-1.70;99.90;;;;;;5072252;28;20201;-72
2023/01/22 06:02:41;;;;;;;23.03;9.70;;;-1.70;99.90;;;;;;5073590;28;20583;-72
2023/01/22 06:05:07;;;;;;;27.43;10.33;;;-1.70;99.90;;;;;;5073710;28;20427;-71
2023/01/22 06:07:33;;;;;;;21.13;8.20;;;-1.70;99.90;;;;;;5073711;28;20672;-71
2023/01/22 06:09:58;;;;;;;22.13;8.97;;;-1.70;99.90;;;;;;5073558;28;20185;-72
2023/01/22 06:12:24;;;;;;;18.53;8.57;;;-1.70;99.90;;;;;;5073425;28;20188;-72
2023/01/22 06:14:51;;;;;;;22.37;9.80;;;-1.70;99.90;;;;;;5073376;28;20330;-71
2023/01/22 06:17:17;;;;;;;16.07;8.33;;;-1.70;99.90;;;;;;5073496;28;20342;-73
2023/01/22 06:19:43;;;;;;;19.93;10.57;;;-1.70;99.90;;;;;;5073274;28;20478;-74
2023/01/22 06:22:08;;;;;;;22.30;9.77;;;-1.70;99.90;;;;;;5068702;28;20206;-74
2023/01/22 06:24:34;;;;;;;14.80;7.63;;;-1.70;99.90;;;;;;5073330;28;20181;-74
2023/01/22 06:27:00;;;;;;;20.50;9.87;;;-1.70;99.90;;;;;;5083010;28;20601;-73
2023/01/22 06:29:25;;;;;;;23.60;9.43;;;-1.70;99.90;;;;;;5075738;28;20188;-73
2023/01/22 06:31:51;;;;;;;20.10;10.30;;;-1.70;99.90;;;;;;5072950;28;20173;-74
2023/01/22 06:34:16;;;;;;;25.30;12.67;;;-1.80;99.90;;;;;;5072827;28;20181;-74
2023/01/22 06:36:42;;;;;;;19.90;8.90;;;-1.80;99.90;;;;;;5072893;28;20177;-73
2023/01/22 06:39:07;;;;;;;23.47;10.27;;;-1.80;99.90;;;;;;5088670;28;20192;-73
2023/01/22 06:41:33;;;;;;;20.70;10.60;;;-1.80;99.90;;;;;;5072960;28;20196;-73
2023/01/22 06:43:59;;;;;;;19.80;9.80;;;-1.80;99.90;;;;;;5073181;28;20208;-73
2023/01/22 06:46:24;;;;;;;22.80;12.17;;;-1.80;99.90;;;;;;5072568;28;20176;-73
2023/01/22 06:48:50;;;;;;;20.50;10.53;;;-1.80;99.90;;;;;;5064743;28;20181;-73
2023/01/22 06:51:15;;;;;;;27.60;11.20;;;-1.80;99.90;;;;;;5075189;28;20181;-73
2023/01/22 06:53:41;;;;;;;33.77;10.30;;;-1.80;99.90;;;;;;5077075;28;20277;-73
2023/01/22 06:56:07;;;;;;;22.33;10.23;;;-1.80;99.90;;;;;;5072470;28;20177;-73
2023/01/22 06:58:32;;;;;;;25.87;12.30;;;-1.80;99.90;;;;;;5072683;28;20638;-73
2023/01/22 07:01:03;;;;;;;28.53;10.83;;;-1.80;99.90;;;;;;5072163;28;20220;-73
2023/01/22 07:03:29;;;;;;;23.27;10.70;;;-1.80;99.90;;;;;;5072446;28;20177;-73
2023/01/22 07:05:56;;;;;;;27.20;11.00;;;-1.80;99.90;;;;;;5072186;28;20791;-73
2023/01/22 07:08:22;;;;;;;25.90;11.03;;;-1.80;99.90;;;;;;5072504;28;20181;-74
2023/01/22 07:10:48;;;;;;;28.20;9.20;;;-1.80;99.90;;;;;;5072425;28;20434;-74
2023/01/22 07:13:14;;;;;;;22.30;10.73;;;-1.80;99.90;;;;;;5072077;28;20256;-74
2023/01/22 07:15:41;;;;;;;20.13;10.27;;;-1.80;99.90;;;;;;5066954;28;20260;-74
2023/01/22 07:18:08;;;;;;;19.70;9.33;;;-1.80;99.90;;;;;;5067620;28;20896;-74
2023/01/22 07:20:33;;;;;;;19.80;9.73;;;-1.80;99.90;;;;;;5072130;28;20463;-74
2023/01/22 07:22:59;;;;;;;22.00;11.43;;;-1.80;99.90;;;;;;5068365;28;20423;-74
2023/01/22 07:25:26;;;;;;;25.17;9.13;;;-1.70;99.90;;;;;;5063151;28;20678;-74
2023/01/22 07:27:51;;;;;;;20.20;9.33;;;-1.70;99.90;;;;;;5072376;28;20219;-74
2023/01/22 07:30:17;;;;;;;23.73;9.50;;;-1.70;99.90;;;;;;5072240;28;20419;-73
2023/01/22 07:32:43;;;;;;;19.37;10.53;;;-1.70;99.90;;;;;;5072051;28;20230;-74
2023/01/22 07:35:09;;;;;;;23.00;10.90;;;-1.70;99.90;;;;;;5069191;28;20185;-74
2023/01/22 07:37:35;;;;;;;18.77;9.63;;;-1.70;99.90;;;;;;5071678;28;20447;-74
2023/01/22 07:40:01;;;;;;;19.17;11.47;;;-1.70;99.90;;;;;;5072158;28;20193;-74
2023/01/22 07:42:27;;;;;;;22.73;10.60;;;-1.60;99.90;;;;;;5071553;28;20736;-74
2023/01/22 07:44:52;;;;;;;25.43;11.90;;;-1.60;99.90;;;;;;5060499;28;20921;-73
2023/01/22 07:47:18;;;;;;;22.63;9.93;;;-1.60;99.90;;;;;;5069458;28;20256;-73
2023/01/22 07:49:43;;;;;;;28.57;10.10;;;-1.50;99.90;;;;;;5072219;28;20563;-73
2023/01/22 07:52:09;;;;;;;17.33;11.17;;;-1.50;99.90;;;;;;5071370;28;20224;-73
2023/01/22 07:54:35;;;;;;;27.47;11.90;;;-1.50;99.90;;;;;;5072431;28;20187;-73
2023/01/22 07:57:02;;;;;;;27.03;10.10;;;-1.40;99.90;;;;;;5072030;28;20216;-73
2023/01/22 07:59:28;;;;;;;20.77;10.57;;;-1.30;99.90;;;;;;5073603;28;20197;-73
2023/01/22 08:01:54;;;;;;;23.13;11.10;;;-1.30;99.90;;;;;;5074382;28;20418;-73
2023/01/22 08:04:20;;;;;;;24.67;9.47;;;-1.20;99.90;;;;;;5071716;28;20411;-74
2023/01/22 08:06:45;;;;;;;22.50;10.10;;;-1.20;99.90;;;;;;5071547;28;20180;-74
2023/01/22 08:09:11;;;;;;;18.17;8.23;;;-1.10;99.90;;;;;;5072030;28;20222;-74
2023/01/22 08:11:36;;;;;;;23.37;10.33;;;-1.10;99.90;;;;;;5071816;28;20196;-73
2023/01/22 08:14:02;;;;;;;15.60;8.13;;;-1.00;99.90;;;;;;5072036;28;20177;-73
2023/01/22 08:16:28;;;;;;;23.20;10.07;;;-1.00;99.90;;;;;;5072418;28;20269;-73
2023/01/22 08:18:54;;;;;;;20.13;9.30;;;-0.90;99.90;;;;;;5072290;28;20177;-73
2023/01/22 08:21:19;;;;;;;21.50;10.00;;;-0.90;99.90;;;;;;5071046;28;20276;-73
2023/01/22 08:23:45;;;;;;;22.47;9.57;;;-0.80;99.90;;;;;;5071552;28;20502;-73
2023/01/22 08:26:11;;;;;;;20.90;9.77;;;-0.80;99.90;;;;;;5073866;28;20176;-73
2023/01/22 08:28:37;;;;;;;21.23;8.33;;;-0.90;99.90;;;;;;5071376;28;20426;-73
2023/01/22 08:31:03;;;;;;;22.07;11.00;;;-0.90;99.90;;;;;;5071565;28;20181;-73
2023/01/22 08:33:31;;;;;;;21.87;9.50;;;-1.00;99.90;;;;;;5073745;28;20423;-73
2023/01/22 08:35:57;;;;;;;23.43;10.90;;;-1.00;99.90;;;;;;5073755;28;20459;-73
2023/01/22 08:38:22;;;;;;;21.70;10.43;;;-1.00;99.90;;;;;;5071591;28;20462;-73
2023/01/22 08:40:52;;;;;;;21.23;8.70;;;-0.90;99.90;;;;;;5071412;28;20204;-73
2023/01/22 08:43:17;;;;;;;20.13;9.00;;;-1.10;99.90;;;;;;5071474;28;20193;-74
2023/01/22 08:45:46;;;;;;;16.07;8.13;;;-1.10;99.90;;;;;;5071732;28;20419;-73
2023/01/22 08:48:12;;;;;;;18.90;9.40;;;-1.00;99.90;;;;;;5071485;28;20257;-74
2023/01/22 08:50:37;;;;;;;14.87;7.93;;;-1.00;99.90;;;;;;5068073;28;20826;-73
2023/01/22 08:53:03;;;;;;;20.07;10.63;;;-1.00;99.90;;;;;;5062060;28;20170;-73
2023/01/22 08:55:29;;;;;;;20.13;10.03;;;-1.00;99.90;;;;;;5071156;28;20215;-73
2023/01/22 08:57:55;;;;;;;22.20;10.53;;;-1.00;99.90;;;;;;5071369;28;20223;-73
2023/01/22 09:00:23;;;;;;;28.77;12.80;;;-1.00;99.90;;;;;;5070969;28;20197;-73
2023/01/22 09:02:48;;;;;;;25.83;12.10;;;-1.00;99.90;;;;;;5070940;28;20407;-73
2023/01/22 09:05:14;;;;;;;24.90;11.70;;;-1.00;99.90;;;;;;5071174;28;20426;-73
2023/01/22 09:07:40;;;;;;;23.17;11.00;;;-1.00;99.90;;;;;;5065956;28;20642;-73
2023/01/22 09:10:07;;;;;;;17.57;9.27;;;-0.90;99.90;;;;;;5061767;28;20195;-73
2023/01/22 09:12:33;;;;;;;21.10;9.57;;;-0.90;99.90;;;;;;5069423;28;20169;-73
2023/01/22 09:14:59;;;;;;;29.20;10.37;;;-0.80;99.90;;;;;;5071743;28;20878;-73
2023/01/22 09:17:24;;;;;;;23.87;9.00;;;-0.80;99.90;;;;;;5073723;28;20423;-68
2023/01/22 09:19:50;;;;;;;15.07;8.60;;;-0.80;99.90;;;;;;5073601;28;20564;-74
2023/01/22 09:22:16;;;;;;;20.40;9.27;;;-0.80;99.90;;;;;;5068790;28;20205;-73
2023/01/22 09:24:41;;;;;;;23.90;9.50;;;-0.80;99.90;;;;;;5069829;28;20181;-72
2023/01/22 09:27:08;;;;;;;18.27;7.73;;;-0.80;99.90;;;;;;5074067;28;20234;-72
2023/01/22 09:29:33;;;;;;;19.73;9.77;;;-0.70;99.90;;;;;;5073982;28;20177;-72
2023/01/22 09:31:59;;;;;;;22.23;10.67;;;-0.70;99.90;;;;;;5073226;28;20446;-72
2023/01/22 09:34:25;;;;;;;25.77;9.17;;;-0.70;99.90;;;;;;5073587;28;20180;-72
2023/01/22 09:36:50;;;;;;;19.27;8.43;;;-0.60;99.90;;;;;;5072206;28;20272;-73
2023/01/22 09:39:16;;;;;;;20.73;9.40;;;-0.60;99.90;;;;;;5073150;28;20483;-72
2023/01/22 09:41:47;;;;;;;15.97;7.87;;;-0.50;99.90;;;;;;5084542;28;20203;-73
2023/01/22 09:44:16;;;;;;;15.37;8.60;;;-0.50;99.90;;;;;;5073027;28;20415;-73
2023/01/22 09:46:52;;;;;;;23.57;9.07;;;-0.50;99.90;;;;;;5066826;28;20457;-73
2023/01/22 09:49:22;;;;;;;16.23;8.50;;;-0.40;99.90;;;;;;5073421;28;20411;-73
2023/01/22 09:52:06;;;;;;;19.00;9.00;;;-0.30;99.90;;;;;;5064616;28;20431;-73
2023/01/22 09:54:32;;;;;;;21.63;9.90;;;-0.30;99.90;;;;;;5071251;28;20501;-73
2023/01/22 09:57:03;;;;;;;22.20;9.50;;;-0.30;99.90;;;;;;5073214;28;20458;-73
2023/01/22 09:59:37;;;;;;;16.07;8.47;;;-0.20;99.90;;;;;;5068452;28;20553;-72
2023/01/22 10:02:21;;;;;;;19.67;8.93;;;-0.10;99.90;;;;;;5072976;28;20415;-72
2023/01/22 10:04:51;;;;;;;15.50;8.77;;;0.00;99.90;;;;;;5060801;28;20941;-73
2023/01/22 10:07:25;;;;;;;14.37;7.83;;;0.00;99.90;;;;;;5073050;28;20494;-72
2023/01/22 10:09:54;;;;;;;13.43;8.10;;;0.00;99.90;;;;;;5072997;28;20493;-72
2023/01/22 10:12:20;;;;;;;20.30;8.87;;;0.10;99.90;;;;;;5072911;28;20494;-72
2023/01/22 10:14:45;;;;;;;16.30;7.60;;;0.10;99.90;;;;;;5072815;28;20601;-72
2023/01/22 10:17:20;;;;;;;14.27;7.90;;;0.10;99.90;;;;;;5064855;28;20275;-72
2023/01/22 10:19:51;;;;;;;12.33;5.70;;;0.10;99.90;;;;;;5072815;28;20287;-72
2023/01/22 10:22:24;;;;;;;14.60;6.10;;;0.10;99.90;;;;;;5072076;28;20411;-72
2023/01/22 10:24:51;;;;;;;11.87;7.10;;;0.20;99.90;;;;;;5072527;28;20415;-72
2023/01/22 10:27:20;;;;;;;12.77;6.40;;;0.30;99.90;;;;;;5059268;28;20404;-72
2023/01/22 10:30:13;;;;;;;13.27;7.40;;;0.40;99.90;;;;;;5072303;28;20407;-72
2023/01/22 10:32:39;;;;;;;14.63;6.60;;;0.40;99.90;;;;;;5071706;28;20405;-72
2023/01/22 10:35:18;;;;;;;13.57;6.27;;;0.40;99.90;;;;;;5072222;28;20450;-72
2023/01/22 10:37:44;;;;;;;13.57;6.30;;;0.50;99.90;;;;;;5072056;28;20280;-72
2023/01/22 10:40:24;;;;;;;10.87;5.77;;;0.60;99.90;;;;;;5071780;28;20548;-72
2023/01/22 10:43:19;;;;;;;11.03;5.67;;;0.60;99.90;;;;;;5069708;28;20209;-72
2023/01/22 10:45:57;;;;;;;11.73;6.17;;;0.80;99.90;;;;;;5054119;28;20441;-72
2023/01/22 10:48:23;;;;;;;8.47;5.47;;;0.80;99.90;;;;;;5068009;28;20508;-72
2023/01/22 10:51:02;;;;;;;12.30;5.40;;;0.80;99.90;;;;;;5063084;28;20439;-72
2023/01/22 10:53:35;;;;;;;9.30;4.80;;;0.80;99.90;;;;;;5062539;28;20216;-72
2023/01/22 10:56:05;;;;;;;12.03;4.77;;;0.80;99.90;;;;;;5065840;28;20435;-72
2023/01/22 10:58:34;;;;;;;17.00;5.40;;;0.90;99.90;;;;;;5064098;28;20443;-72
2023/01/22 11:01:18;;;;;;;10.23;5.30;;;0.90;99.90;;;;;;5069971;28;20483;-72
2023/01/22 11:03:44;;;;;;;13.20;4.50;;;0.90;99.90;;;;;;5071417;28;20948;-72
2023/01/22 11:06:17;;;;;;;11.40;4.60;;;0.90;99.90;;;;;;5062704;28;20499;-72
2023/01/22 11:08:58;;;;;;;5.83;3.53;;;1.00;99.90;;;;;;5068031;28;20818;-72
2023/01/22 11:11:31;;;;;;;8.10;3.60;;;1.10;99.90;;;;;;5071430;28;20823;-72
2023/01/22 11:13:59;;;;;;;6.97;3.40;;;1.20;99.90;;;;;;5071388;28;20435;-72
2023/01/22 11:16:25;;;;;;;8.60;3.80;;;1.20;99.90;;;;;;5071046;28;20427;-73
2023/01/22 11:19:02;;;;;;;7.13;3.80;;;1.20;99.90;;;;;;5071248;28;20433;-72
2023/01/22 11:21:35;;;;;;;7.60;4.07;;;1.10;99.90;;;;;;5070797;28;20725;-72
2023/01/22 11:24:01;;;;;;;11.47;4.50;;;1.10;99.90;;;;;;5071329;28;20778;-72
2023/01/22 11:26:29;;;;;;;7.07;3.73;;;1.00;99.90;;;;;;5071158;28;20419;-72
2023/01/22 11:29:14;;;;;;;6.77;4.07;;;1.00;99.90;;;;;;5070902;28;20178;-72
2023/01/22 11:32:10;;;;;;;10.40;5.00;;;0.90;99.90;;;;;;5070701;28;20423;-72
2023/01/22 11:34:38;;;;;;;7.70;4.13;;;0.90;99.90;;;;;;5071104;28;20418;-72
2023/01/22 11:37:15;;;;;;;9.47;4.80;;;1.00;99.90;;;;;;5070229;28;20431;-72
2023/01/22 11:39:52;;;;;;;8.30;3.43;;;1.00;99.90;;;;;;5070882;28;20511;-72
2023/01/22 11:42:37;;;;;;;7.07;3.70;;;0.90;99.90;;;;;;5070861;28;20419;-72
2023/01/22 11:45:08;;;;;;;10.03;3.90;;;0.80;99.90;;;;;;5064778;28;20523;-72
2023/01/22 11:48:13;;;;;;;11.70;3.80;;;0.80;99.90;;;;;;5063884;28;20407;-72
2023/01/22 11:50:55;;;;;;;6.17;2.73;;;0.80;99.90;;;;;;5071254;28;20439;-72
2023/01/22 11:53:53;;;;;;;8.50;4.20;;;0.80;99.90;;;;;;5065720;28;20510;-72
2023/01/22 11:56:40;;;;;;;10.23;4.37;;;0.50;99.90;;;;;;5071168;28;20411;-72
2023/01/22 11:59:20;;;;;;;9.37;4.67;;;0.70;99.90;;;;;;5060029;28;20450;-72
2023/01/22 12:02:03;;;;;;;7.70;3.97;;;0.70;99.90;;;;;;5067230;28;20411;-72
2023/01/22 12:04:56;;;;;;;9.40;4.07;;;0.80;99.90;;;;;;5070864;28;20489;-72
2023/01/22 12:07:43;;;;;;;8.47;4.27;;;0.90;99.90;;;;;;5070649;28;20407;-72
2023/01/22 12:10:41;;;;;;;11.27;3.93;;;1.00;99.90;;;;;;5070609;28;20427;-72
2023/01/22 12:13:44;;;;;;;9.90;4.00;;;1.00;99.90;;;;;;5067024;28;20526;-72
2023/01/22 12:16:26;;;;;;;9.00;5.47;;;1.10;99.90;;;;;;5070397;28;20509;-72
2023/01/22 12:19:10;;;;;;;11.00;5.47;;;1.10;99.90;;;;;;5070731;28;20572;-72
2023/01/22 12:22:07;;;;;;;12.60;5.30;;;1.10;99.90;;;;;;5070338;28;20422;-72
2023/01/22 12:24:40;;;;;;;11.10;4.77;;;1.00;99.90;;;;;;5070599;28;20473;-72
2023/01/22 12:27:25;;;;;;;11.60;5.37;;;1.00;99.90;;;;;;5070729;28;20396;-71
2023/01/22 12:30:18;;;;;;;12.10;5.13;;;0.90;99.90;;;;;;5058241;28;20411;-72
2023/01/22 12:32:48;;;;;;;12.60;5.80;;;0.80;99.90;;;;;;5051933;28;20463;-72
2023/01/22 12:35:20;;;;;;;9.07;5.50;;;0.70;99.90;;;;;;5070485;28;20438;-72
2023/01/22 12:37:51;;;;;;;12.80;6.57;;;0.60;99.90;;;;;;5070248;28;20442;-72
2023/01/22 12:40:28;;;;;;;6.70;4.50;;;0.50;99.90;;;;;;5070400;28;20528;-72
2023/01/22 12:42:56;;;;;;;8.57;4.90;;;0.50;99.90;;;;;;5070443;28;20446;-72
2023/01/22 12:46:06;;;;;;;9.17;5.87;;;0.50;99.90;;;;;;5070003;28;20415;-72
2023/01/22 12:49:05;;;;;;;11.43;6.40;;;0.40;99.90;;;;;;5066880;28;20442;-72
2023/01/22 12:51:38;;;;;;;12.00;5.73;;;0.50;99.90;;;;;;5073483;28;20411;-72
2023/01/22 12:54:31;;;;;;;9.13;3.27;;;0.60;99.90;;;;;;5073611;28;20503;-71
2023/01/22 12:57:24;;;;;;;5.50;3.77;;;0.60;99.90;;;;;;5069330;28;20446;-72